Luzern, Switzerland
Current Conditions -  °F | °C
As of 2:50 PM on Saturday 22 Nov 2014 (Local Time) from LSME Reporting Station
Haze Haze  
Wind Chill: 45°   Ceiling: 100
Heat Index: 45°   Visibility: 1.3mi
Dew Point: 43°   Wind: 1mph
Humidity: 93%   Direction: NA
Pressure: 30.15"   Gusts: NA
Location:  47.06°N, 8.3°E
Report Text: LSME 221350Z AUTO VRB01KT 2200NDV BR OVC001 07/06 Q1021 RMK AMB
Loading
Personal Weather Stations






























Interactive Weather Map New forecast layout! Learn more

10-Day Weather Forecast

Advertisements
Track Severe Weather on mobile